Time;durP1;ratioP1;P1;durP2;ratioP2;P2;SDS_P1;SDS_P2;PMS_P1;PMS_P2;Temp;Humidity;BMP_temperature;BMP_pressure;BME280_temperature;BME280_humidity;BME280_pressure;Samples;Min_cycle;Max_cycle;Signal;HPM_P1;HPM_P2
2022/07/31 00:00:07;;;;;;;4.50;2.35;;;;;;;;;;5036502;28;20038;-81
2022/07/31 00:02:33;;;;;;;6.18;2.42;;;;;;;;;;5035315;28;20383;-81
2022/07/31 00:04:59;;;;;;;3.72;2.45;;;;;;;;;;5036684;28;20499;-81
2022/07/31 00:07:25;;;;;;;4.45;2.92;;;;;;;;;;5036383;28;20087;-81
2022/07/31 00:09:51;;;;;;;3.92;2.47;;;;;;;;;;5036650;28;20456;-81
2022/07/31 00:12:17;;;;;;;5.57;3.10;;;;;;;;;;5036545;28;20510;-81
2022/07/31 00:14:43;;;;;;;4.82;3.08;;;;;;;;;;5036307;28;20033;-81
2022/07/31 00:17:09;;;;;;;4.03;2.80;;;;;;;;;;5036483;28;20026;-81
2022/07/31 00:19:36;;;;;;;5.63;3.20;;;;;;;;;;5036137;28;20056;-81
2022/07/31 00:22:02;;;;;;;5.00;2.70;;;;;;;;;;5036541;28;20033;-81
2022/07/31 00:24:28;;;;;;;5.22;3.13;;;;;;;;;;5036598;28;20100;-81
2022/07/31 00:26:55;;;;;;;4.32;2.80;;;;;;;;;;5036075;28;20556;-81
2022/07/31 00:29:21;;;;;;;9.50;3.65;;;;;;;;;;5036352;28;20502;-81
2022/07/31 00:31:47;;;;;;;7.97;3.90;;;;;;;;;;5036167;28;20033;-81
2022/07/31 00:34:13;;;;;;;6.53;3.22;;;;;;;;;;5047926;28;20053;-81
2022/07/31 00:36:39;;;;;;;6.15;3.70;;;;;;;;;;5034458;28;20050;-81
2022/07/31 00:39:05;;;;;;;6.20;3.75;;;;;;;;;;5035838;28;20503;-81
2022/07/31 00:41:41;;;;;;;8.73;3.75;;;;;;;;;;5035869;28;20030;-81
2022/07/31 00:44:08;;;;;;;6.60;3.40;;;;;;;;;;5034439;28;20018;-81
2022/07/31 00:46:34;;;;;;;9.77;3.20;;;;;;;;;;5035716;28;20030;-81
2022/07/31 00:49:00;;;;;;;8.75;4.47;;;;;;;;;;5034331;28;20035;-81
2022/07/31 00:51:26;;;;;;;7.35;3.60;;;;;;;;;;5035566;28;20056;-81
2022/07/31 00:53:52;;;;;;;8.82;3.85;;;;;;;;;;5035674;28;20079;-81
2022/07/31 00:56:18;;;;;;;7.95;3.80;;;;;;;;;;5035520;28;20447;-81
2022/07/31 00:58:44;;;;;;;6.22;3.90;;;;;;;;;;5035493;28;20029;-81
2022/07/31 01:01:10;;;;;;;7.63;3.08;;;;;;;;;;5035628;28;20452;-81
2022/07/31 01:03:36;;;;;;;5.78;3.38;;;;;;;;;;5035444;28;20026;-81
2022/07/31 01:06:02;;;;;;;6.40;3.05;;;;;;;;;;5035387;28;20494;-81
2022/07/31 01:08:28;;;;;;;8.48;3.95;;;;;;;;;;5035298;28;20030;-81
2022/07/31 01:10:57;;;;;;;9.73;3.50;;;;;;;;;;5034014;28;20033;-81
2022/07/31 01:13:45;;;;;;;4.90;3.10;;;;;;;;;;5035275;28;20025;-81
2022/07/31 01:16:12;;;;;;;8.10;3.22;;;;;;;;;;5035154;28;20071;-81
2022/07/31 01:18:39;;;;;;;5.85;2.90;;;;;;;;;;5035249;28;20018;-81
2022/07/31 01:21:09;;;;;;;5.30;3.13;;;;;;;;;;5035092;28;20025;-81
2022/07/31 01:23:42;;;;;;;8.95;3.00;;;;;;;;;;5027802;28;20026;-81
2022/07/31 01:26:08;;;;;;;7.07;3.38;;;;;;;;;;5015274;28;20076;-81
2022/07/31 01:28:52;;;;;;;18.95;3.72;;;;;;;;;;5015044;28;20038;-81
2022/07/31 01:31:21;;;;;;;8.88;4.05;;;;;;;;;;5015051;28;20149;-81
2022/07/31 01:33:53;;;;;;;8.73;4.00;;;;;;;;;;5015217;28;20456;-81
2022/07/31 01:36:20;;;;;;;4.70;3.60;;;;;;;;;;5034475;28;20049;-81
2022/07/31 01:38:49;;;;;;;8.30;3.92;;;;;;;;;;5034855;28;20480;-81
2022/07/31 01:41:17;;;;;;;6.47;3.70;;;;;;;;;;5033290;28;20029;-81
2022/07/31 01:43:46;;;;;;;8.70;3.38;;;;;;;;;;5034828;28;20032;-81
2022/07/31 01:46:14;;;;;;;7.25;3.53;;;;;;;;;;5034568;28;20061;-81
2022/07/31 01:48:41;;;;;;;9.25;3.60;;;;;;;;;;5033224;28;20068;-81
2022/07/31 01:51:08;;;;;;;9.38;3.25;;;;;;;;;;5033063;28;20032;-81
2022/07/31 01:53:35;;;;;;;6.55;3.10;;;;;;;;;;5034611;28;20029;-81
2022/07/31 01:56:01;;;;;;;6.30;3.85;;;;;;;;;;5034356;28;20021;-81
2022/07/31 01:58:29;;;;;;;5.65;3.90;;;;;;;;;;5034354;28;20104;-81
2022/07/31 02:00:57;;;;;;;4.90;3.83;;;;;;;;;;5034568;28;20170;-81
2022/07/31 02:03:24;;;;;;;7.53;3.30;;;;;;;;;;5034113;28;20110;-81
2022/07/31 02:05:50;;;;;;;8.50;3.60;;;;;;;;;;5034182;28;20048;-81
2022/07/31 02:08:17;;;;;;;7.38;3.63;;;;;;;;;;5049537;28;20084;-81
2022/07/31 02:10:46;;;;;;;7.43;4.45;;;;;;;;;;5034423;28;20037;-81
2022/07/31 02:13:13;;;;;;;5.88;3.63;;;;;;;;;;5049346;28;20029;-81
2022/07/31 02:15:40;;;;;;;6.25;3.80;;;;;;;;;;5034138;28;20060;-81
2022/07/31 02:18:07;;;;;;;9.45;4.43;;;;;;;;;;5049212;28;20029;-81
2022/07/31 02:20:33;;;;;;;6.95;4.07;;;;;;;;;;5033895;28;20021;-81
2022/07/31 02:23:00;;;;;;;8.77;4.13;;;;;;;;;;5049253;28;20387;-81
2022/07/31 02:25:26;;;;;;;7.03;4.22;;;;;;;;;;5033846;28;20075;-81
2022/07/31 02:27:54;;;;;;;13.73;4.15;;;;;;;;;;5033669;28;20029;-81
2022/07/31 02:30:20;;;;;;;10.05;4.72;;;;;;;;;;5034181;28;20037;-81
2022/07/31 02:32:47;;;;;;;7.65;4.07;;;;;;;;;;5034131;28;20182;-81
2022/07/31 02:35:15;;;;;;;6.80;4.95;;;;;;;;;;5033675;28;20056;-81
2022/07/31 02:37:41;;;;;;;10.23;4.82;;;;;;;;;;5033626;28;20036;-81
2022/07/31 02:40:08;;;;;;;7.90;4.70;;;;;;;;;;5033576;28;20017;-81
2022/07/31 02:42:34;;;;;;;8.88;5.20;;;;;;;;;;5032234;28;20028;-81
2022/07/31 02:45:01;;;;;;;9.57;5.22;;;;;;;;;;5033700;28;20021;-81
2022/07/31 02:47:30;;;;;;;12.13;5.75;;;;;;;;;;5033431;28;20049;-81
2022/07/31 02:49:56;;;;;;;9.57;4.72;;;;;;;;;;5033695;28;20021;-81
2022/07/31 02:52:23;;;;;;;9.70;5.07;;;;;;;;;;5048605;28;20025;-81
2022/07/31 02:54:50;;;;;;;9.02;4.82;;;;;;;;;;5033579;28;20032;-81
2022/07/31 02:57:16;;;;;;;8.27;4.90;;;;;;;;;;5033205;28;20390;-81
2022/07/31 02:59:42;;;;;;;7.50;5.20;;;;;;;;;;5033785;28;20030;-81
2022/07/31 03:02:09;;;;;;;11.65;5.15;;;;;;;;;;5033345;28;20093;-81
2022/07/31 03:04:35;;;;;;;8.00;5.15;;;;;;;;;;5033432;28;20014;-81
2022/07/31 03:07:01;;;;;;;7.90;5.28;;;;;;;;;;5033500;28;20036;-81
2022/07/31 03:09:29;;;;;;;10.88;5.85;;;;;;;;;;5033216;28;20056;-81
2022/07/31 03:11:55;;;;;;;8.52;5.15;;;;;;;;;;5033520;28;20163;-81
2022/07/31 03:14:22;;;;;;;8.15;5.38;;;;;;;;;;5048394;28;20120;-81
2022/07/31 03:16:48;;;;;;;8.30;5.38;;;;;;;;;;5032191;28;20021;-81
2022/07/31 03:19:15;;;;;;;10.57;5.18;;;;;;;;;;5033078;28;20079;-81
2022/07/31 03:21:42;;;;;;;8.13;5.68;;;;;;;;;;5048337;28;20044;-81
2022/07/31 03:24:09;;;;;;;11.63;5.88;;;;;;;;;;5021449;28;20048;-81
2022/07/31 03:26:35;;;;;;;9.40;6.20;;;;;;;;;;5013331;28;20101;-81
2022/07/31 03:29:01;;;;;;;10.05;5.70;;;;;;;;;;5013375;28;20030;-81
2022/07/31 03:31:28;;;;;;;10.95;6.13;;;;;;;;;;5013251;28;20026;-82
2022/07/31 03:33:54;;;;;;;9.07;6.07;;;;;;;;;;5013492;28;20029;-81
2022/07/31 03:36:21;;;;;;;8.88;5.80;;;;;;;;;;5032664;28;20092;-81
2022/07/31 03:38:47;;;;;;;8.73;6.30;;;;;;;;;;5031494;28;20026;-81
2022/07/31 03:41:13;;;;;;;8.60;6.95;;;;;;;;;;5033104;28;20049;-81
2022/07/31 03:43:40;;;;;;;8.68;6.65;;;;;;;;;;5032750;28;20075;-81
2022/07/31 03:46:06;;;;;;;14.02;6.90;;;;;;;;;;5032969;28;20037;-82
2022/07/31 03:48:32;;;;;;;10.65;6.60;;;;;;;;;;5032817;28;20026;-82
2022/07/31 03:50:58;;;;;;;8.82;6.57;;;;;;;;;;5032768;28;20029;-81
2022/07/31 03:53:24;;;;;;;11.23;7.53;;;;;;;;;;5031480;28;20032;-81
2022/07/31 03:55:51;;;;;;;12.98;7.32;;;;;;;;;;5025177;28;20057;-81
2022/07/31 03:58:18;;;;;;;12.70;7.05;;;;;;;;;;5012983;28;20053;-81
2022/07/31 04:00:45;;;;;;;12.35;7.18;;;;;;;;;;5013212;28;20072;-82
2022/07/31 04:03:11;;;;;;;9.60;6.65;;;;;;;;;;5012939;28;20026;-81
2022/07/31 04:05:41;;;;;;;14.43;7.28;;;;;;;;;;5012936;28;20182;-81
2022/07/31 04:08:08;;;;;;;11.32;6.32;;;;;;;;;;5012935;28;20018;-81
2022/07/31 04:10:37;;;;;;;15.80;8.07;;;;;;;;;;5012935;28;20021;-81
2022/07/31 04:13:04;;;;;;;12.65;7.07;;;;;;;;;;5012820;28;20514;-81
2022/07/31 04:15:30;;;;;;;13.60;7.18;;;;;;;;;;5012880;28;20030;-81
2022/07/31 04:17:56;;;;;;;12.65;7.13;;;;;;;;;;5012719;28;20036;-81
2022/07/31 04:20:22;;;;;;;12.10;6.75;;;;;;;;;;5012779;28;20065;-81
2022/07/31 04:22:48;;;;;;;11.30;7.63;;;;;;;;;;5012748;28;20388;-81
2022/07/31 04:25:15;;;;;;;15.63;7.05;;;;;;;;;;5012774;28;20101;-81
2022/07/31 04:27:41;;;;;;;12.77;7.28;;;;;;;;;;5014373;28;20025;-81
2022/07/31 04:30:07;;;;;;;10.35;6.18;;;;;;;;;;5016427;28;20381;-81
2022/07/31 04:32:34;;;;;;;14.93;7.05;;;;;;;;;;5016198;28;20018;-81
2022/07/31 04:35:00;;;;;;;12.30;6.72;;;;;;;;;;5024723;28;20097;-81
2022/07/31 04:37:26;;;;;;;14.60;6.38;;;;;;;;;;5035926;28;20045;-81
2022/07/31 04:39:52;;;;;;;10.68;6.18;;;;;;;;;;5036125;28;20025;-81
2022/07/31 04:42:18;;;;;;;8.88;5.95;;;;;;;;;;5036321;28;20013;-82
2022/07/31 04:44:45;;;;;;;15.50;7.60;;;;;;;;;;5031040;28;20045;-81
2022/07/31 04:47:11;;;;;;;12.18;6.78;;;;;;;;;;5016209;28;20464;-81
2022/07/31 04:49:37;;;;;;;13.23;6.60;;;;;;;;;;5015884;28;20037;-81
2022/07/31 04:52:03;;;;;;;11.48;6.10;;;;;;;;;;5014571;28;20025;-82
2022/07/31 04:54:29;;;;;;;17.00;7.43;;;;;;;;;;5015851;28;20030;-81
2022/07/31 04:56:55;;;;;;;12.30;7.85;;;;;;;;;;5015900;28;20064;-81
2022/07/31 04:59:22;;;;;;;14.20;6.97;;;;;;;;;;5015706;28;20101;-81
2022/07/31 05:01:49;;;;;;;14.75;7.93;;;;;;;;;;5015702;28;20022;-81
2022/07/31 05:04:15;;;;;;;11.77;7.85;;;;;;;;;;5015629;28;20018;-81
2022/07/31 05:06:51;;;;;;;12.55;7.43;;;;;;;;;;5015616;28;20026;-81
2022/07/31 05:09:18;;;;;;;18.98;8.43;;;;;;;;;;5015671;28;20026;-81
2022/07/31 05:11:44;;;;;;;23.52;8.77;;;;;;;;;;5015495;28;20049;-81
2022/07/31 05:14:12;;;;;;;15.75;7.85;;;;;;;;;;5015755;28;20022;-81
2022/07/31 05:16:38;;;;;;;18.65;8.65;;;;;;;;;;5015284;28;20033;-81
2022/07/31 05:19:04;;;;;;;16.70;9.25;;;;;;;;;;5015394;28;20018;-82
2022/07/31 05:21:31;;;;;;;19.20;9.10;;;;;;;;;;5015378;28;20026;-81
2022/07/31 05:23:57;;;;;;;14.18;9.32;;;;;;;;;;5016236;28;20026;-82
2022/07/31 05:26:24;;;;;;;16.90;9.25;;;;;;;;;;5015242;28;20025;-82
2022/07/31 05:28:51;;;;;;;20.55;9.40;;;;;;;;;;5015368;28;20033;-82
2022/07/31 05:31:18;;;;;;;15.95;9.70;;;;;;;;;;5015802;28;20088;-82
2022/07/31 05:33:45;;;;;;;15.23;8.00;;;;;;;;;;5015419;28;20536;-82
2022/07/31 05:36:11;;;;;;;15.23;8.25;;;;;;;;;;5033639;28;20088;-82
2022/07/31 05:38:37;;;;;;;11.35;6.65;;;;;;;;;;5033810;28;20080;-82
2022/07/31 05:41:03;;;;;;;10.75;6.90;;;;;;;;;;5034765;28;20472;-82
2022/07/31 05:43:29;;;;;;;16.13;8.18;;;;;;;;;;5035139;28;20033;-81
2022/07/31 05:45:55;;;;;;;11.00;6.55;;;;;;;;;;5035554;28;20436;-82
2022/07/31 05:48:22;;;;;;;10.98;6.28;;;;;;;;;;5034789;28;20021;-82
2022/07/31 05:50:49;;;;;;;15.68;6.55;;;;;;;;;;5033279;28;20494;-82
2022/07/31 05:53:15;;;;;;;12.05;6.30;;;;;;;;;;5034531;28;20072;-82
2022/07/31 05:55:42;;;;;;;10.05;6.72;;;;;;;;;;5034369;28;20045;-82
2022/07/31 05:58:08;;;;;;;11.57;6.45;;;;;;;;;;5034848;28;20471;-82
2022/07/31 06:00:35;;;;;;;14.38;6.63;;;;;;;;;;5034680;28;20061;-82
2022/07/31 06:03:01;;;;;;;11.85;6.55;;;;;;;;;;5034444;28;20068;-82
2022/07/31 06:05:28;;;;;;;11.40;6.70;;;;;;;;;;5034398;28;20091;-82
2022/07/31 06:07:54;;;;;;;20.60;8.02;;;;;;;;;;5034535;28;20052;-82
2022/07/31 06:10:20;;;;;;;13.57;7.40;;;;;;;;;;5034449;28;20037;-82
2022/07/31 06:12:46;;;;;;;15.18;6.70;;;;;;;;;;5034336;28;20073;-82
2022/07/31 06:15:12;;;;;;;17.55;7.13;;;;;;;;;;5034473;28;20025;-82
2022/07/31 06:17:38;;;;;;;11.93;6.78;;;;;;;;;;5034342;28;20075;-82
2022/07/31 06:20:05;;;;;;;17.00;8.23;;;;;;;;;;5034245;28;20026;-82
2022/07/31 06:22:31;;;;;;;13.70;6.93;;;;;;;;;;5033923;28;20041;-82
2022/07/31 06:24:57;;;;;;;10.57;6.85;;;;;;;;;;5034007;28;20464;-82
2022/07/31 06:27:23;;;;;;;14.70;7.65;;;;;;;;;;5034150;28;20025;-82
2022/07/31 06:29:49;;;;;;;15.60;7.93;;;;;;;;;;5034036;28;20424;-82
2022/07/31 06:32:15;;;;;;;14.00;7.82;;;;;;;;;;5034084;28;20484;-82
2022/07/31 06:34:41;;;;;;;14.18;8.50;;;;;;;;;;5034010;28;20033;-82
2022/07/31 06:37:08;;;;;;;13.88;8.55;;;;;;;;;;5033632;28;20033;-81
2022/07/31 06:39:34;;;;;;;12.30;8.32;;;;;;;;;;5032306;28;20022;-81
2022/07/31 06:42:00;;;;;;;12.48;8.25;;;;;;;;;;5034873;28;20034;-81
2022/07/31 06:44:26;;;;;;;15.73;8.70;;;;;;;;;;5033507;28;20087;-81
2022/07/31 06:46:52;;;;;;;16.83;9.05;;;;;;;;;;5033820;28;20076;-80
2022/07/31 06:49:18;;;;;;;17.45;9.30;;;;;;;;;;5033852;28;20026;-80
2022/07/31 06:51:45;;;;;;;16.83;9.52;;;;;;;;;;5048717;28;20033;-80
2022/07/31 06:54:11;;;;;;;13.65;9.15;;;;;;;;;;5032115;28;20394;-80
2022/07/31 06:56:38;;;;;;;18.38;9.32;;;;;;;;;;5033482;28;20088;-80
2022/07/31 06:59:05;;;;;;;15.18;9.35;;;;;;;;;;5031900;28;20064;-80
2022/07/31 07:01:32;;;;;;;17.00;9.20;;;;;;;;;;5033208;28;20021;-80
2022/07/31 07:03:58;;;;;;;14.48;9.27;;;;;;;;;;5031839;28;20049;-80
2022/07/31 07:06:25;;;;;;;18.13;9.75;;;;;;;;;;5033216;28;20036;-80
2022/07/31 07:08:51;;;;;;;15.15;8.80;;;;;;;;;;5033575;28;20021;-80
2022/07/31 07:11:18;;;;;;;17.40;9.77;;;;;;;;;;5033141;28;20068;-80
2022/07/31 07:13:44;;;;;;;15.98;8.82;;;;;;;;;;5032911;28;20017;-80
2022/07/31 07:16:10;;;;;;;14.48;9.50;;;;;;;;;;5031485;28;20099;-80
2022/07/31 07:18:36;;;;;;;19.00;9.70;;;;;;;;;;5032819;28;20108;-80
2022/07/31 07:21:03;;;;;;;19.27;9.55;;;;;;;;;;5033051;28;20101;-80
2022/07/31 07:23:29;;;;;;;17.02;10.82;;;;;;;;;;5032926;28;20037;-79
2022/07/31 07:25:55;;;;;;;15.73;10.43;;;;;;;;;;5032616;28;20033;-79
2022/07/31 07:28:21;;;;;;;18.13;10.05;;;;;;;;;;5032735;28;20029;-80
2022/07/31 07:30:47;;;;;;;19.85;10.82;;;;;;;;;;5032767;28;20079;-80
2022/07/31 07:33:13;;;;;;;17.98;10.85;;;;;;;;;;5032582;28;20079;-79
2022/07/31 07:35:40;;;;;;;23.02;11.13;;;;;;;;;;5023833;28;20084;-80
2022/07/31 07:38:06;;;;;;;24.40;12.10;;;;;;;;;;5025647;28;20061;-80
2022/07/31 07:40:32;;;;;;;18.52;10.85;;;;;;;;;;5026168;28;20014;-80
2022/07/31 07:42:58;;;;;;;25.85;11.20;;;;;;;;;;5023950;28;20096;-80
2022/07/31 07:45:24;;;;;;;22.30;12.10;;;;;;;;;;5016904;28;20038;-79
2022/07/31 07:47:50;;;;;;;22.17;11.65;;;;;;;;;;5012873;28;20041;-80
2022/07/31 07:50:16;;;;;;;25.05;12.45;;;;;;;;;;5013005;28;20041;-80
2022/07/31 07:52:43;;;;;;;23.15;11.95;;;;;;;;;;5032114;28;20022;-79
2022/07/31 07:55:11;;;;;;;20.00;12.07;;;;;;;;;;5032677;28;20030;-79
2022/07/31 07:57:37;;;;;;;19.42;11.70;;;;;;;;;;5032702;28;20021;-79
2022/07/31 08:00:05;;;;;;;19.20;11.07;;;;;;;;;;5032935;28;20109;-79
2022/07/31 08:02:32;;;;;;;23.23;12.00;;;;;;;;;;5034308;28;20021;-79
2022/07/31 08:04:58;;;;;;;23.15;14.20;;;;;;;;;;5036593;28;20475;-80
2022/07/31 08:07:31;;;;;;;25.23;13.55;;;;;;;;;;5036889;28;20026;-80
2022/07/31 08:09:57;;;;;;;21.58;13.77;;;;;;;;;;5036474;28;20022;-81
2022/07/31 08:12:23;;;;;;;21.02;12.98;;;;;;;;;;5036499;28;20029;-80
2022/07/31 08:14:49;;;;;;;24.17;13.25;;;;;;;;;;5033990;28;20029;-80
2022/07/31 08:17:15;;;;;;;21.65;13.68;;;;;;;;;;5036201;28;20029;-80
2022/07/31 08:19:41;;;;;;;21.27;13.05;;;;;;;;;;5036220;28;20026;-79
2022/07/31 08:22:09;;;;;;;20.77;13.27;;;;;;;;;;5036470;28;20395;-80
2022/07/31 08:24:35;;;;;;;18.38;12.20;;;;;;;;;;5036201;28;20460;-80
2022/07/31 08:29:46;;;;;;;22.58;12.88;;;;;;;;;;5036411;28;20453;-80
2022/07/31 08:32:12;;;;;;;19.83;12.23;;;;;;;;;;5035989;28;20475;-80
2022/07/31 08:34:39;;;;;;;19.35;12.35;;;;;;;;;;5036237;28;20044;-81
2022/07/31 08:37:05;;;;;;;25.25;12.43;;;;;;;;;;5036123;28;20522;-79
2022/07/31 08:39:31;;;;;;;20.30;13.70;;;;;;;;;;5035860;28;20035;-79
2022/07/31 08:41:57;;;;;;;21.70;13.77;;;;;;;;;;5035806;28;20232;-80
2022/07/31 08:44:24;;;;;;;22.35;13.50;;;;;;;;;;5035433;28;20025;-80
2022/07/31 08:46:53;;;;;;;23.80;14.10;;;;;;;;;;5033976;28;20049;-80
2022/07/31 08:49:20;;;;;;;20.27;12.65;;;;;;;;;;5035810;28;20106;-80
2022/07/31 08:51:46;;;;;;;29.83;15.27;;;;;;;;;;5036050;28;20061;-80
2022/07/31 08:54:13;;;;;;;25.42;14.88;;;;;;;;;;5035815;28;20502;-79
2022/07/31 08:56:39;;;;;;;22.55;14.23;;;;;;;;;;5035485;28;20375;-79
2022/07/31 08:59:06;;;;;;;29.08;16.35;;;;;;;;;;5035689;28;20109;-79
2022/07/31 09:01:33;;;;;;;29.27;16.88;;;;;;;;;;5035763;28;20022;-78
2022/07/31 09:03:59;;;;;;;29.13;16.23;;;;;;;;;;5035365;28;20021;-78
2022/07/31 09:06:25;;;;;;;35.08;17.83;;;;;;;;;;5036243;28;20041;-78
2022/07/31 09:08:51;;;;;;;31.52;17.75;;;;;;;;;;5035473;28;20044;-79
2022/07/31 09:11:17;;;;;;;33.60;19.27;;;;;;;;;;5034241;28;20044;-79
2022/07/31 09:13:53;;;;;;;31.88;18.90;;;;;;;;;;5035642;28;20372;-78
2022/07/31 09:16:19;;;;;;;29.00;17.55;;;;;;;;;;5035491;28;20518;-79
2022/07/31 09:18:53;;;;;;;34.05;18.48;;;;;;;;;;5035428;28;20785;-78
2022/07/31 09:21:20;;;;;;;31.90;17.90;;;;;;;;;;5035368;28;20049;-78
2022/07/31 09:23:46;;;;;;;29.98;17.45;;;;;;;;;;5031162;28;20029;-79
2022/07/31 09:26:12;;;;;;;36.85;17.70;;;;;;;;;;5035194;28;20030;-79
2022/07/31 09:28:39;;;;;;;33.22;17.98;;;;;;;;;;5034884;28;20048;-79
2022/07/31 09:31:07;;;;;;;32.60;18.98;;;;;;;;;;5033410;28;20108;-79
2022/07/31 09:33:35;;;;;;;33.60;17.80;;;;;;;;;;5035138;28;20079;-79
2022/07/31 09:36:01;;;;;;;35.50;19.73;;;;;;;;;;5034942;28;20127;-79
2022/07/31 09:38:41;;;;;;;33.78;19.15;;;;;;;;;;5033910;28;20025;-79
2022/07/31 09:41:11;;;;;;;33.53;19.02;;;;;;;;;;5034932;28;20017;-79
2022/07/31 09:43:37;;;;;;;28.85;17.67;;;;;;;;;;5035034;28;20026;-79
2022/07/31 09:46:04;;;;;;;35.03;20.10;;;;;;;;;;5032048;28;20055;-79
2022/07/31 09:48:30;;;;;;;41.85;21.05;;;;;;;;;;5035188;28;20049;-79
2022/07/31 09:50:58;;;;;;;32.97;20.05;;;;;;;;;;5034462;28;20021;-80
2022/07/31 09:53:25;;;;;;;39.13;21.00;;;;;;;;;;5034363;28;20032;-78
2022/07/31 09:55:51;;;;;;;35.03;21.20;;;;;;;;;;5034228;28;20445;-79
2022/07/31 09:58:17;;;;;;;36.40;20.38;;;;;;;;;;5049703;28;20022;-79
2022/07/31 10:00:43;;;;;;;38.88;23.38;;;;;;;;;;5034323;28;20056;-78
2022/07/31 10:03:12;;;;;;;36.45;22.30;;;;;;;;;;5034412;28;20028;-78
2022/07/31 10:05:41;;;;;;;37.88;21.75;;;;;;;;;;5034573;28;20101;-80
2022/07/31 10:08:07;;;;;;;36.67;22.55;;;;;;;;;;5033054;28;20022;-81
2022/07/31 10:10:34;;;;;;;38.53;24.05;;;;;;;;;;5034047;28;20402;-81
2022/07/31 10:13:05;;;;;;;34.42;22.50;;;;;;;;;;5032656;28;20044;-81
2022/07/31 10:15:32;;;;;;;37.55;22.90;;;;;;;;;;5033620;28;20021;-81
2022/07/31 10:17:59;;;;;;;37.97;22.92;;;;;;;;;;5033702;28;20468;-81
2022/07/31 10:20:26;;;;;;;33.33;22.40;;;;;;;;;;5033896;28;20662;-81
2022/07/31 10:22:58;;;;;;;37.30;22.67;;;;;;;;;;5032172;28;20455;-81
2022/07/31 10:25:26;;;;;;;37.55;21.38;;;;;;;;;;5033085;28;20376;-81
2022/07/31 10:27:53;;;;;;;32.95;21.08;;;;;;;;;;5032502;28;20025;-81
2022/07/31 10:30:19;;;;;;;33.72;21.05;;;;;;;;;;5032547;28;20475;-82
2022/07/31 10:32:46;;;;;;;33.13;21.05;;;;;;;;;;5033561;28;20041;-82
2022/07/31 10:35:12;;;;;;;33.15;20.48;;;;;;;;;;5032153;28;20046;-82
2022/07/31 10:38:16;;;;;;;38.17;22.05;;;;;;;;;;5034062;28;20036;-82
2022/07/31 10:40:49;;;;;;;33.13;19.80;;;;;;;;;;4992072;28;20033;-82
2022/07/31 10:43:27;;;;;;;34.42;21.40;;;;;;;;;;4975906;28;20022;-82
2022/07/31 10:45:54;;;;;;;33.00;19.92;;;;;;;;;;5017058;28;20476;-82
2022/07/31 10:48:21;;;;;;;33.13;19.42;;;;;;;;;;5033571;28;20436;-82
2022/07/31 10:50:47;;;;;;;33.47;20.65;;;;;;;;;;5032075;28;20017;-82
2022/07/31 10:53:14;;;;;;;38.17;21.98;;;;;;;;;;5033474;28;20013;-82
2022/07/31 10:55:41;;;;;;;37.08;23.33;;;;;;;;;;5033647;28;20032;-82
2022/07/31 10:58:08;;;;;;;38.03;21.80;;;;;;;;;;5033176;28;20518;-81
2022/07/31 11:00:34;;;;;;;38.92;22.45;;;;;;;;;;5031813;28;20353;-82
2022/07/31 11:03:11;;;;;;;35.95;24.13;;;;;;;;;;5031862;28;20041;-81
2022/07/31 11:05:37;;;;;;;38.47;24.60;;;;;;;;;;5033175;28;20375;-81
2022/07/31 11:08:04;;;;;;;37.75;26.13;;;;;;;;;;5031994;28;20026;-80
2022/07/31 11:10:32;;;;;;;39.15;26.70;;;;;;;;;;5033354;28;20036;-80
2022/07/31 11:13:06;;;;;;;46.05;28.55;;;;;;;;;;5032140;28;20144;-80
2022/07/31 11:15:32;;;;;;;44.05;29.73;;;;;;;;;;5031691;28;20108;-80
2022/07/31 11:17:58;;;;;;;41.95;28.08;;;;;;;;;;5033108;28;20449;-80
2022/07/31 11:20:25;;;;;;;45.78;29.88;;;;;;;;;;5032933;28;20029;-80
2022/07/31 11:23:02;;;;;;;46.22;29.70;;;;;;;;;;5032986;28;20410;-80
2022/07/31 11:25:29;;;;;;;45.97;30.90;;;;;;;;;;5048288;28;20022;-80
2022/07/31 11:28:08;;;;;;;47.55;31.08;;;;;;;;;;5033124;28;20022;-80
2022/07/31 11:30:46;;;;;;;48.65;31.08;;;;;;;;;;5032937;28;20033;-80
2022/07/31 11:33:12;;;;;;;43.92;29.38;;;;;;;;;;5033076;28;20371;-80
2022/07/31 11:35:38;;;;;;;44.42;29.48;;;;;;;;;;5032745;28;20053;-80
2022/07/31 11:38:04;;;;;;;50.33;31.15;;;;;;;;;;5035327;28;20829;-81
2022/07/31 11:40:30;;;;;;;42.47;29.42;;;;;;;;;;5052259;28;20028;-80
2022/07/31 11:42:57;;;;;;;47.25;32.55;;;;;;;;;;5036899;28;20056;-80
2022/07/31 11:45:23;;;;;;;45.45;30.38;;;;;;;;;;5036941;28;20049;-80
2022/07/31 11:47:54;;;;;;;45.33;31.63;;;;;;;;;;5037024;28;20487;-80
2022/07/31 11:50:20;;;;;;;45.75;29.90;;;;;;;;;;5036782;28;20030;-81
2022/07/31 11:52:47;;;;;;;42.70;28.33;;;;;;;;;;5052062;28;20033;-81
2022/07/31 11:55:14;;;;;;;42.10;28.40;;;;;;;;;;5034325;28;20029;-81
2022/07/31 11:57:40;;;;;;;39.33;27.05;;;;;;;;;;5015374;28;20041;-81
2022/07/31 12:00:11;;;;;;;43.67;28.50;;;;;;;;;;5015487;28;20423;-81
2022/07/31 12:02:44;;;;;;;40.03;26.63;;;;;;;;;;5015435;28;20026;-81
2022/07/31 12:05:12;;;;;;;39.30;27.10;;;;;;;;;;5016847;28;20044;-81
2022/07/31 12:07:39;;;;;;;36.17;26.27;;;;;;;;;;5016610;28;20079;-81
2022/07/31 12:10:06;;;;;;;37.55;26.02;;;;;;;;;;5015256;28;20416;-82
2022/07/31 12:12:32;;;;;;;33.08;24.42;;;;;;;;;;5015231;28;20026;-82
2022/07/31 12:14:58;;;;;;;31.48;24.30;;;;;;;;;;5015207;28;20033;-82
2022/07/31 12:17:24;;;;;;;30.92;23.00;;;;;;;;;;5015047;28;20030;-82
2022/07/31 12:19:50;;;;;;;29.92;23.55;;;;;;;;;;5015158;28;20510;-82
2022/07/31 12:22:17;;;;;;;29.33;22.00;;;;;;;;;;5015044;28;20034;-82
2022/07/31 12:24:44;;;;;;;30.58;23.13;;;;;;;;;;5016492;28;20018;-82
2022/07/31 12:27:14;;;;;;;30.05;22.63;;;;;;;;;;5016348;28;20036;-82
2022/07/31 12:29:41;;;;;;;26.88;20.27;;;;;;;;;;5014909;28;20541;-82
2022/07/31 12:32:07;;;;;;;27.65;20.48;;;;;;;;;;5016322;28;20026;-82
2022/07/31 12:34:38;;;;;;;23.70;17.60;;;;;;;;;;5016557;28;20105;-82
2022/07/31 12:37:06;;;;;;;20.63;16.08;;;;;;;;;;5015974;28;20481;-81
2022/07/31 12:39:34;;;;;;;23.10;16.05;;;;;;;;;;5016430;28;20029;-82
2022/07/31 12:42:00;;;;;;;24.55;14.75;;;;;;;;;;5014693;28;20028;-82
2022/07/31 12:44:27;;;;;;;22.23;14.02;;;;;;;;;;5015763;28;20026;-82
2022/07/31 12:46:54;;;;;;;21.95;13.35;;;;;;;;;;5016197;28;20032;-82
2022/07/31 12:49:20;;;;;;;17.48;13.38;;;;;;;;;;5015394;28;20460;-82
2022/07/31 12:51:46;;;;;;;18.52;13.98;;;;;;;;;;5015779;28;20034;-82
2022/07/31 12:54:13;;;;;;;20.65;12.98;;;;;;;;;;5015813;28;20030;-82
2022/07/31 12:56:39;;;;;;;21.95;12.90;;;;;;;;;;5014282;28;20030;-81
2022/07/31 12:59:06;;;;;;;15.90;11.95;;;;;;;;;;5015969;28;20022;-82
2022/07/31 13:01:32;;;;;;;20.17;12.60;;;;;;;;;;5014569;28;20487;-82
2022/07/31 13:03:58;;;;;;;18.23;11.88;;;;;;;;;;5014323;28;20045;-81
2022/07/31 13:06:26;;;;;;;17.73;11.30;;;;;;;;;;5014355;28;20037;-82
2022/07/31 13:08:52;;;;;;;15.13;10.80;;;;;;;;;;5015710;28;20138;-82
2022/07/31 13:11:19;;;;;;;21.35;10.30;;;;;;;;;;5014197;28;20036;-82
2022/07/31 13:13:45;;;;;;;17.83;10.60;;;;;;;;;;5015734;28;20022;-82
2022/07/31 13:16:11;;;;;;;15.82;9.63;;;;;;;;;;5015244;28;20084;-82
2022/07/31 13:18:37;;;;;;;16.67;10.73;;;;;;;;;;5015313;28;20022;-81
2022/07/31 13:21:03;;;;;;;13.50;9.32;;;;;;;;;;5015279;28;20018;-81
2022/07/31 13:23:30;;;;;;;14.38;9.75;;;;;;;;;;5013944;28;20045;-82
2022/07/31 13:25:57;;;;;;;16.13;9.45;;;;;;;;;;5013919;28;20567;-81
2022/07/31 13:28:23;;;;;;;15.55;8.73;;;;;;;;;;5013785;28;20475;-82
2022/07/31 13:30:49;;;;;;;14.27;9.27;;;;;;;;;;5013830;28;20021;-81
2022/07/31 13:33:15;;;;;;;14.52;9.00;;;;;;;;;;5015080;28;20018;-82
2022/07/31 13:35:41;;;;;;;12.23;9.13;;;;;;;;;;5014904;28;20050;-82
2022/07/31 13:38:07;;;;;;;15.13;8.73;;;;;;;;;;5013617;28;20155;-82
2022/07/31 13:43:18;;;;;;;15.68;8.52;;;;;;;;;;5014937;28;20129;-82
2022/07/31 13:45:45;;;;;;;16.15;9.57;;;;;;;;;;5026231;28;20087;-78
2022/07/31 13:48:11;;;;;;;14.25;7.88;;;;;;;;;;5029005;28;20022;-79
2022/07/31 13:50:38;;;;;;;14.50;9.25;;;;;;;;;;5027115;28;20025;-78
2022/07/31 13:53:04;;;;;;;23.33;10.57;;;;;;;;;;5032352;28;20034;-78
2022/07/31 13:55:30;;;;;;;14.25;9.10;;;;;;;;;;5030055;28;20025;-79
2022/07/31 13:57:56;;;;;;;15.85;9.57;;;;;;;;;;5030664;28;20037;-79
2022/07/31 14:00:22;;;;;;;14.55;9.02;;;;;;;;;;5024739;28;20029;-78
2022/07/31 14:02:48;;;;;;;12.00;8.27;;;;;;;;;;5034213;28;20044;-78
2022/07/31 14:05:15;;;;;;;13.32;7.88;;;;;;;;;;5031754;28;20121;-78
2022/07/31 14:07:41;;;;;;;12.73;7.65;;;;;;;;;;5033592;28;20032;-79
2022/07/31 14:10:07;;;;;;;12.60;7.97;;;;;;;;;;5034001;28;20026;-79
2022/07/31 14:12:33;;;;;;;16.23;7.38;;;;;;;;;;5032318;28;20029;-78
2022/07/31 14:15:00;;;;;;;7.88;4.93;;;;;;;;;;5032659;28;20483;-78
2022/07/31 14:17:26;;;;;;;8.10;4.70;;;;;;;;;;5031363;28;20112;-78
2022/07/31 14:19:52;;;;;;;7.43;4.38;;;;;;;;;;5020100;28;20080;-78
2022/07/31 14:22:18;;;;;;;8.77;4.30;;;;;;;;;;5029376;28;20095;-78
2022/07/31 14:24:44;;;;;;;7.88;3.70;;;;;;;;;;5031664;28;20021;-78
2022/07/31 14:27:10;;;;;;;6.97;3.35;;;;;;;;;;5035070;28;20829;-78
2022/07/31 14:29:36;;;;;;;5.35;2.90;;;;;;;;;;5033636;28;20503;-78
2022/07/31 14:32:02;;;;;;;6.72;3.33;;;;;;;;;;5031607;28;20025;-78